Time;durP1;ratioP1;P1;durP2;ratioP2;P2;SDS_P1;SDS_P2;PMS_P1;PMS_P2;Temp;Humidity;BMP_temperature;BMP_pressure;BME280_temperature;BME280_humidity;BME280_pressure;Samples;Min_cycle;Max_cycle;Signal;HPM_P1;HPM_P2
2022/04/24 00:01:36;;;;;;;55.83;8.53;;;;;;;;;;4960302;28;20792;-68
2022/04/24 00:04:02;;;;;;;69.87;11.00;;;;;;;;;;4942245;28;20214;-68
2022/04/24 00:06:29;;;;;;;60.40;9.33;;;;;;;;;;4959729;28;20217;-67
2022/04/24 00:08:56;;;;;;;72.07;11.77;;;;;;;;;;4960711;28;20241;-68
2022/04/24 00:11:23;;;;;;;71.57;10.97;;;;;;;;;;4954953;28;20736;-68
2022/04/24 00:13:49;;;;;;;56.97;8.87;;;;;;;;;;4961993;28;20305;-68
2022/04/24 00:16:15;;;;;;;36.37;5.73;;;;;;;;;;4957211;28;20285;-68
2022/04/24 00:18:41;;;;;;;39.53;6.50;;;;;;;;;;4955828;28;20190;-67
2022/04/24 00:21:08;;;;;;;64.10;9.97;;;;;;;;;;4957088;28;20907;-68
2022/04/24 00:23:34;;;;;;;60.80;9.23;;;;;;;;;;4956454;28;20273;-68
2022/04/24 00:26:00;;;;;;;92.33;13.67;;;;;;;;;;4959204;28;20632;-68
2022/04/24 00:28:26;;;;;;;68.43;10.17;;;;;;;;;;4956893;28;20218;-68
2022/04/24 00:30:52;;;;;;;49.13;7.57;;;;;;;;;;4948894;28;20613;-67
2022/04/24 00:33:18;;;;;;;61.43;9.27;;;;;;;;;;4959728;28;20202;-67
2022/04/24 00:35:44;;;;;;;127.20;18.03;;;;;;;;;;4954754;28;20234;-68
2022/04/24 00:38:10;;;;;;;125.07;17.60;;;;;;;;;;4958628;28;20304;-67
2022/04/24 00:40:36;;;;;;;77.13;11.43;;;;;;;;;;4938723;28;20246;-67
2022/04/24 00:43:02;;;;;;;135.33;19.50;;;;;;;;;;4955679;28;20257;-68
2022/04/24 00:45:28;;;;;;;54.93;8.67;;;;;;;;;;4954431;28;20199;-67
2022/04/24 00:47:54;;;;;;;47.13;7.50;;;;;;;;;;4958902;28;20286;-68
2022/04/24 00:50:20;;;;;;;48.73;7.60;;;;;;;;;;4952410;28;20305;-68
2022/04/24 00:52:49;;;;;;;60.83;9.07;;;;;;;;;;4957407;28;20270;-68
2022/04/24 00:55:16;;;;;;;78.60;11.57;;;;;;;;;;4935237;28;20215;-68
2022/04/24 00:57:42;;;;;;;54.07;8.27;;;;;;;;;;4953970;28;20637;-68
2022/04/24 01:00:08;;;;;;;115.87;16.80;;;;;;;;;;4940032;28;20208;-68
2022/04/24 01:02:34;;;;;;;51.43;8.10;;;;;;;;;;4956126;28;20352;-68
2022/04/24 01:05:00;;;;;;;79.73;12.63;;;;;;;;;;4962949;28;20222;-68
2022/04/24 01:07:26;;;;;;;84.23;12.63;;;;;;;;;;4953129;28;20214;-68
2022/04/24 01:09:52;;;;;;;35.57;5.67;;;;;;;;;;4960186;28;20853;-68
2022/04/24 01:12:18;;;;;;;37.20;6.27;;;;;;;;;;4954348;28;20174;-68
2022/04/24 01:14:44;;;;;;;43.77;7.10;;;;;;;;;;4956330;28;20222;-67
2022/04/24 01:17:10;;;;;;;95.57;14.63;;;;;;;;;;4955231;28;20633;-67
2022/04/24 01:19:36;;;;;;;71.90;11.03;;;;;;;;;;4957168;28;20223;-68
2022/04/24 01:22:02;;;;;;;98.07;14.80;;;;;;;;;;4957151;28;20222;-68
2022/04/24 01:24:29;;;;;;;47.80;7.70;;;;;;;;;;4961372;28;20679;-68
2022/04/24 01:26:55;;;;;;;54.67;8.57;;;;;;;;;;4951332;28;20715;-68
2022/04/24 01:29:21;;;;;;;31.57;5.30;;;;;;;;;;4958576;28;20207;-67
2022/04/24 01:31:51;;;;;;;86.13;12.57;;;;;;;;;;4954000;28;20262;-68
2022/04/24 01:34:18;;;;;;;71.00;10.90;;;;;;;;;;4954604;28;20223;-68
2022/04/24 01:36:43;;;;;;;60.57;9.23;;;;;;;;;;4960281;28;20289;-67
2022/04/24 01:39:10;;;;;;;74.10;11.13;;;;;;;;;;4964499;28;20442;-68
2022/04/24 01:41:36;;;;;;;59.93;9.37;;;;;;;;;;4959612;28;20221;-67
2022/04/24 01:44:02;;;;;;;67.70;10.10;;;;;;;;;;4962614;28;20592;-68
2022/04/24 01:46:28;;;;;;;56.23;8.50;;;;;;;;;;4963004;28;20316;-68
2022/04/24 01:48:53;;;;;;;50.80;7.80;;;;;;;;;;4963037;28;20225;-68
2022/04/24 01:51:19;;;;;;;67.47;9.93;;;;;;;;;;4966696;28;20455;-68
2022/04/24 01:53:46;;;;;;;71.13;11.07;;;;;;;;;;4964828;28;20216;-68
2022/04/24 01:56:13;;;;;;;152.60;21.63;;;;;;;;;;4945285;28;20228;-68
2022/04/24 01:58:39;;;;;;;102.30;14.80;;;;;;;;;;4962557;28;20225;-67
2022/04/24 02:01:05;;;;;;;72.57;11.40;;;;;;;;;;4959489;28;20214;-67
2022/04/24 02:03:32;;;;;;;49.40;8.07;;;;;;;;;;4963021;28;20273;-67
2022/04/24 02:05:58;;;;;;;131.77;21.20;;;;;;;;;;4964115;28;20550;-68
2022/04/24 02:08:24;;;;;;;46.50;8.00;;;;;;;;;;4968747;28;20244;-67
2022/04/24 02:10:51;;;;;;;76.13;12.07;;;;;;;;;;4963058;28;20599;-68
2022/04/24 02:13:17;;;;;;;88.67;13.33;;;;;;;;;;4957888;28;20214;-68
2022/04/24 02:15:43;;;;;;;62.07;9.93;;;;;;;;;;4944296;28;20190;-67
2022/04/24 02:18:09;;;;;;;77.53;11.83;;;;;;;;;;4965688;28;20261;-68
2022/04/24 02:20:35;;;;;;;85.57;12.97;;;;;;;;;;4960763;28;20323;-67
2022/04/24 02:23:01;;;;;;;78.33;12.27;;;;;;;;;;4966227;28;20226;-68
2022/04/24 02:25:28;;;;;;;42.70;7.17;;;;;;;;;;4969515;28;20785;-67
2022/04/24 02:27:54;;;;;;;48.03;7.70;;;;;;;;;;4960227;28;20273;-68
2022/04/24 02:30:21;;;;;;;92.50;14.00;;;;;;;;;;4961021;28;20210;-68
2022/04/24 02:32:47;;;;;;;71.23;11.07;;;;;;;;;;4964936;28;20775;-68
2022/04/24 02:35:13;;;;;;;31.87;5.30;;;;;;;;;;4961084;28;20332;-68
2022/04/24 02:37:39;;;;;;;66.07;10.20;;;;;;;;;;4960018;28;20253;-68
2022/04/24 02:40:09;;;;;;;74.63;11.63;;;;;;;;;;4964845;28;20297;-68
2022/04/24 02:42:36;;;;;;;49.50;8.53;;;;;;;;;;4960431;28;20187;-68
2022/04/24 02:45:02;;;;;;;86.13;14.27;;;;;;;;;;4967190;28;20214;-68
2022/04/24 02:47:28;;;;;;;43.43;6.93;;;;;;;;;;4959207;28;20210;-68
2022/04/24 02:49:54;;;;;;;63.27;9.90;;;;;;;;;;4958864;28;20658;-68
2022/04/24 02:52:20;;;;;;;45.80;7.47;;;;;;;;;;4957376;28;20222;-67
2022/04/24 02:54:46;;;;;;;81.60;12.53;;;;;;;;;;4963459;28;20226;-67
2022/04/24 02:57:12;;;;;;;67.53;10.40;;;;;;;;;;4960732;28;20664;-68
2022/04/24 02:59:42;;;;;;;54.27;8.50;;;;;;;;;;4957845;28;20214;-68
2022/04/24 03:02:08;;;;;;;114.60;16.90;;;;;;;;;;4939317;28;20288;-68
2022/04/24 03:04:34;;;;;;;32.90;5.50;;;;;;;;;;4956117;28;20217;-68
2022/04/24 03:07:00;;;;;;;90.37;14.00;;;;;;;;;;4958971;28;20221;-68
2022/04/24 03:09:26;;;;;;;24.60;4.43;;;;;;;;;;4962952;28;20187;-67
2022/04/24 03:11:52;;;;;;;38.07;6.27;;;;;;;;;;4959840;28;20199;-68
2022/04/24 03:14:18;;;;;;;62.07;9.50;;;;;;;;;;4966011;28;20213;-67
2022/04/24 03:16:44;;;;;;;45.13;7.33;;;;;;;;;;4959870;28;20273;-67
2022/04/24 03:19:09;;;;;;;104.87;15.60;;;;;;;;;;4960958;28;20221;-68
2022/04/24 03:21:36;;;;;;;63.80;10.10;;;;;;;;;;4958496;28;20608;-67
2022/04/24 03:24:02;;;;;;;72.63;11.23;;;;;;;;;;4961153;28;20625;-68
2022/04/24 03:26:28;;;;;;;95.73;14.17;;;;;;;;;;4953631;28;20233;-68
2022/04/24 03:28:53;;;;;;;105.13;15.67;;;;;;;;;;4951644;28;20214;-68
2022/04/24 03:31:19;;;;;;;40.83;7.17;;;;;;;;;;4955903;28;20214;-68
2022/04/24 03:33:45;;;;;;;70.13;11.13;;;;;;;;;;4940407;28;20182;-68
2022/04/24 03:36:12;;;;;;;98.53;16.67;;;;;;;;;;4955502;28;20248;-68
2022/04/24 03:38:38;;;;;;;41.80;7.30;;;;;;;;;;4964701;28;20245;-68
2022/04/24 03:41:04;;;;;;;94.00;17.23;;;;;;;;;;4958352;28;20241;-68
2022/04/24 03:43:30;;;;;;;57.80;10.13;;;;;;;;;;4941512;28;20210;-68
2022/04/24 03:45:56;;;;;;;86.17;15.03;;;;;;;;;;4958181;28;20629;-68
2022/04/24 03:48:22;;;;;;;33.47;6.37;;;;;;;;;;4959040;28;20267;-68
2022/04/24 03:50:48;;;;;;;88.73;14.37;;;;;;;;;;4957901;28;20241;-68
2022/04/24 03:53:14;;;;;;;36.70;7.07;;;;;;;;;;4961447;28;20658;-68
2022/04/24 03:55:40;;;;;;;36.07;7.23;;;;;;;;;;4943855;28;20271;-68
2022/04/24 03:58:06;;;;;;;91.97;16.57;;;;;;;;;;4952455;28;20260;-68
2022/04/24 04:00:32;;;;;;;41.60;8.03;;;;;;;;;;4956028;28;20214;-67
2022/04/24 04:02:58;;;;;;;118.30;20.90;;;;;;;;;;4957433;28;20641;-68
2022/04/24 04:05:24;;;;;;;45.57;8.33;;;;;;;;;;4959002;28;20222;-68
2022/04/24 04:07:50;;;;;;;57.30;9.90;;;;;;;;;;4959703;28;20214;-68
2022/04/24 04:10:16;;;;;;;45.00;8.17;;;;;;;;;;4962626;28;20589;-68
2022/04/24 04:12:41;;;;;;;108.67;18.67;;;;;;;;;;4955207;28;20183;-68
2022/04/24 04:15:08;;;;;;;116.90;19.90;;;;;;;;;;4958360;28;20213;-68
2022/04/24 04:17:34;;;;;;;93.90;15.57;;;;;;;;;;4957428;28;20221;-68
2022/04/24 04:20:00;;;;;;;114.90;19.33;;;;;;;;;;4956136;28;20757;-68
2022/04/24 04:22:26;;;;;;;90.23;15.13;;;;;;;;;;4954905;28;20639;-68
2022/04/24 04:24:52;;;;;;;64.10;10.67;;;;;;;;;;4958391;28;20230;-68
2022/04/24 04:27:18;;;;;;;29.90;5.53;;;;;;;;;;4942291;28;20260;-68
2022/04/24 04:29:45;;;;;;;53.73;9.47;;;;;;;;;;4960788;28;20629;-69
2022/04/24 04:32:11;;;;;;;93.57;15.63;;;;;;;;;;4954849;28;20219;-68
2022/04/24 04:34:37;;;;;;;53.20;9.37;;;;;;;;;;4956545;28;20215;-68
2022/04/24 04:37:03;;;;;;;87.00;14.47;;;;;;;;;;4934299;28;20577;-68
2022/04/24 04:39:29;;;;;;;63.33;10.70;;;;;;;;;;4960696;28;20653;-67
2022/04/24 04:41:55;;;;;;;214.67;34.63;;;;;;;;;;4954730;28;20289;-68
2022/04/24 04:44:20;;;;;;;32.37;5.93;;;;;;;;;;4958911;28;20214;-68
2022/04/24 04:46:46;;;;;;;72.10;12.07;;;;;;;;;;4955241;28;20245;-68
2022/04/24 04:49:13;;;;;;;50.87;8.83;;;;;;;;;;4960502;28;20773;-69
2022/04/24 04:51:39;;;;;;;62.77;11.00;;;;;;;;;;4956101;28;20206;-68
2022/04/24 04:54:05;;;;;;;92.03;16.07;;;;;;;;;;4958360;28;20269;-68
2022/04/24 04:56:31;;;;;;;82.10;13.53;;;;;;;;;;4959282;28;20321;-68
2022/04/24 04:58:57;;;;;;;108.87;19.47;;;;;;;;;;4955782;28;20242;-68
2022/04/24 05:01:23;;;;;;;45.63;7.77;;;;;;;;;;4957582;28;20708;-68
2022/04/24 05:03:49;;;;;;;40.17;7.10;;;;;;;;;;4957543;28;20743;-68
2022/04/24 05:06:16;;;;;;;54.70;9.63;;;;;;;;;;4960049;28;20238;-68
2022/04/24 05:08:42;;;;;;;66.33;11.33;;;;;;;;;;4954837;28;20319;-68
2022/04/24 05:11:08;;;;;;;96.67;16.03;;;;;;;;;;4954409;28;20655;-68
2022/04/24 05:13:34;;;;;;;41.00;7.37;;;;;;;;;;4955396;28;20206;-68
2022/04/24 05:16:00;;;;;;;157.00;24.87;;;;;;;;;;4956867;28;20265;-68
2022/04/24 05:18:26;;;;;;;40.80;7.23;;;;;;;;;;4958893;28;20581;-67
2022/04/24 05:20:52;;;;;;;110.03;18.73;;;;;;;;;;4957835;28;20665;-68
2022/04/24 05:23:18;;;;;;;39.50;7.07;;;;;;;;;;4962804;28;20345;-68
2022/04/24 05:25:44;;;;;;;58.67;10.13;;;;;;;;;;4959574;28;20297;-68
2022/04/24 05:28:10;;;;;;;73.50;12.90;;;;;;;;;;4954043;28;20715;-68
2022/04/24 05:30:36;;;;;;;42.27;7.83;;;;;;;;;;4956672;28;20198;-68
2022/04/24 05:33:02;;;;;;;91.67;15.03;;;;;;;;;;4955905;28;20337;-68
2022/04/24 05:35:28;;;;;;;39.03;7.13;;;;;;;;;;4962299;28;20763;-68
2022/04/24 05:37:54;;;;;;;70.83;12.33;;;;;;;;;;4933518;28;20217;-68
2022/04/24 05:40:20;;;;;;;42.97;7.80;;;;;;;;;;4958203;28;20980;-68
2022/04/24 05:42:48;;;;;;;64.87;11.37;;;;;;;;;;4935307;28;20773;-68
2022/04/24 05:45:15;;;;;;;65.10;11.10;;;;;;;;;;4955261;28;20234;-68
2022/04/24 05:47:44;;;;;;;37.97;6.80;;;;;;;;;;4952756;28;20765;-68
2022/04/24 05:50:10;;;;;;;95.10;16.83;;;;;;;;;;4955681;28;20258;-68
2022/04/24 05:52:36;;;;;;;77.03;13.13;;;;;;;;;;4955897;28;20222;-68
2022/04/24 05:55:02;;;;;;;95.17;16.93;;;;;;;;;;4957046;28;20867;-67
2022/04/24 05:57:28;;;;;;;39.60;7.47;;;;;;;;;;4959750;28;20530;-66
2022/04/24 05:59:54;;;;;;;47.00;8.30;;;;;;;;;;4955215;28;20226;-68
2022/04/24 06:02:20;;;;;;;41.90;7.63;;;;;;;;;;4960343;28;20277;-66
2022/04/24 06:04:46;;;;;;;33.57;6.23;;;;;;;;;;4963326;28;20218;-72
2022/04/24 06:07:12;;;;;;;112.73;18.70;;;;;;;;;;4951358;28;20703;-66
2022/04/24 06:09:38;;;;;;;199.90;33.07;;;;;;;;;;4935096;28;20187;-62
2022/04/24 06:12:04;;;;;;;161.40;26.23;;;;;;;;;;4944177;28;20195;-63
2022/04/24 06:14:30;;;;;;;94.70;16.27;;;;;;;;;;4951255;28;20217;-63
2022/04/24 06:16:56;;;;;;;273.27;47.33;;;;;;;;;;4951761;28;20222;-63
2022/04/24 06:19:22;;;;;;;68.90;12.37;;;;;;;;;;4957004;28;20709;-64
2022/04/24 06:21:48;;;;;;;69.50;11.93;;;;;;;;;;4956861;28;20281;-64
2022/04/24 06:24:14;;;;;;;78.30;14.07;;;;;;;;;;4955774;28;20202;-64
2022/04/24 06:26:41;;;;;;;47.77;8.87;;;;;;;;;;4961295;28;20222;-64
2022/04/24 06:29:07;;;;;;;134.10;23.13;;;;;;;;;;4959338;28;20681;-64
2022/04/24 06:31:33;;;;;;;85.80;15.07;;;;;;;;;;4953757;28;20217;-63
2022/04/24 06:33:59;;;;;;;121.47;21.77;;;;;;;;;;4961237;28;20229;-63
2022/04/24 06:36:25;;;;;;;72.20;13.37;;;;;;;;;;4960755;28;20266;-63
2022/04/24 06:38:50;;;;;;;89.07;16.20;;;;;;;;;;4959053;28;20436;-63
2022/04/24 06:41:16;;;;;;;85.37;15.43;;;;;;;;;;4961094;28;20707;-64
2022/04/24 06:43:42;;;;;;;63.60;11.93;;;;;;;;;;4953060;28;20222;-62
2022/04/24 06:46:08;;;;;;;100.17;20.20;;;;;;;;;;4954758;28;20310;-64
2022/04/24 06:48:34;;;;;;;60.97;12.03;;;;;;;;;;4959337;28;20281;-64
2022/04/24 06:51:00;;;;;;;75.07;15.77;;;;;;;;;;4963794;28;20206;-64
2022/04/24 06:53:28;;;;;;;45.57;9.07;;;;;;;;;;4949512;28;20221;-64
2022/04/24 06:55:54;;;;;;;52.43;10.43;;;;;;;;;;4968110;28;20240;-63
2022/04/24 06:58:20;;;;;;;45.03;9.27;;;;;;;;;;4963741;28;20696;-64
2022/04/24 07:00:47;;;;;;;106.40;19.63;;;;;;;;;;4965826;28;20230;-64
2022/04/24 07:03:18;;;;;;;47.30;9.27;;;;;;;;;;4969899;28;20658;-64
2022/04/24 07:05:44;;;;;;;91.07;16.97;;;;;;;;;;4956996;28;20218;-64
2022/04/24 07:08:10;;;;;;;98.20;19.43;;;;;;;;;;4957264;28;20249;-63
2022/04/24 07:10:36;;;;;;;27.57;5.90;;;;;;;;;;4957803;28;20223;-63
2022/04/24 07:13:03;;;;;;;86.50;18.23;;;;;;;;;;4963999;28;20225;-65
2022/04/24 07:15:30;;;;;;;104.87;20.00;;;;;;;;;;4964589;28;20201;-63
2022/04/24 07:17:56;;;;;;;109.57;22.33;;;;;;;;;;4954944;28;20182;-63
2022/04/24 07:20:23;;;;;;;57.27;11.40;;;;;;;;;;4958907;28;20233;-64
2022/04/24 07:22:49;;;;;;;43.27;9.00;;;;;;;;;;4945187;28;20215;-63
2022/04/24 07:25:15;;;;;;;67.40;12.93;;;;;;;;;;4958349;28;20288;-63
2022/04/24 07:27:42;;;;;;;58.73;12.10;;;;;;;;;;4959380;28;20186;-63
2022/04/24 07:30:13;;;;;;;85.63;16.17;;;;;;;;;;4960945;28;20183;-63
2022/04/24 07:32:40;;;;;;;54.87;10.60;;;;;;;;;;4939258;28;20823;-64
2022/04/24 07:35:08;;;;;;;108.23;21.30;;;;;;;;;;4953805;28;20322;-63
2022/04/24 07:37:34;;;;;;;47.27;10.03;;;;;;;;;;4958386;28;20222;-65
2022/04/24 07:40:00;;;;;;;84.37;17.17;;;;;;;;;;4958374;28;20214;-62
2022/04/24 07:42:26;;;;;;;30.63;7.40;;;;;;;;;;4961889;28;20183;-62
2022/04/24 07:44:52;;;;;;;124.80;26.07;;;;;;;;;;4959067;28;20241;-62
2022/04/24 07:47:18;;;;;;;42.63;9.57;;;;;;;;;;4959432;28;20207;-62
2022/04/24 07:49:44;;;;;;;50.97;11.77;;;;;;;;;;4966474;28;20210;-63
2022/04/24 07:52:09;;;;;;;114.00;23.97;;;;;;;;;;4964953;28;20688;-61
2022/04/24 07:54:35;;;;;;;128.37;28.07;;;;;;;;;;4961162;28;20197;-64
2022/04/24 07:57:01;;;;;;;129.10;30.00;;;;;;;;;;4948586;28;20191;-63
2022/04/24 07:59:27;;;;;;;62.47;14.90;;;;;;;;;;4956569;28;20304;-65
2022/04/24 08:01:53;;;;;;;116.77;26.23;;;;;;;;;;4959763;28;20241;-64
2022/04/24 08:04:19;;;;;;;54.33;12.30;;;;;;;;;;4958278;28;20218;-64
2022/04/24 08:06:45;;;;;;;75.60;16.97;;;;;;;;;;4950265;28;20205;-63
2022/04/24 08:09:11;;;;;;;131.43;31.50;;;;;;;;;;4940929;28;20496;-64
2022/04/24 08:11:37;;;;;;;64.93;14.77;;;;;;;;;;4958357;28;20218;-64
2022/04/24 08:14:03;;;;;;;131.77;31.58;;;;;;;;;;4955943;28;20214;-65
2022/04/24 08:16:29;;;;;;;82.88;19.50;;;;;;;;;;4959218;28;20210;-64
2022/04/24 08:18:55;;;;;;;72.57;19.53;;;;;;;;;;4957319;28;20699;-65
2022/04/24 08:21:21;;;;;;;72.03;19.70;;;;;;;;;;4955287;28;20214;-64
2022/04/24 08:23:47;;;;;;;65.82;22.10;;;;;;;;;;4962273;28;20715;-64
2022/04/24 08:26:13;;;;;;;64.70;21.60;;;;;;;;;;4958195;28;21028;-64
2022/04/24 08:28:38;;;;;;;50.27;17.03;;;;;;;;;;4960441;28;20707;-64
2022/04/24 08:31:04;;;;;;;97.63;28.33;;;;;;;;;;4956326;28;20218;-64
2022/04/24 08:33:30;;;;;;;68.43;19.08;;;;;;;;;;4954070;28;20205;-65
2022/04/24 08:35:56;;;;;;;100.88;28.65;;;;;;;;;;4955998;28;20214;-65
2022/04/24 08:38:22;;;;;;;92.45;25.38;;;;;;;;;;4953150;28;20278;-64
2022/04/24 08:40:49;;;;;;;124.63;31.42;;;;;;;;;;4951334;28;20256;-64
2022/04/24 08:43:15;;;;;;;82.47;21.80;;;;;;;;;;4947379;28;20234;-64
2022/04/24 08:45:42;;;;;;;46.08;13.23;;;;;;;;;;4965111;28;20218;-64
2022/04/24 08:48:08;;;;;;;82.57;24.00;;;;;;;;;;4958518;28;20213;-65
2022/04/24 08:50:34;;;;;;;81.38;26.10;;;;;;;;;;4960936;28;20222;-64
2022/04/24 08:53:00;;;;;;;154.25;53.60;;;;;;;;;;4963731;28;20214;-64
2022/04/24 08:55:27;;;;;;;56.38;21.35;;;;;;;;;;4963906;28;20221;-64
2022/04/24 08:57:53;;;;;;;35.13;11.90;;;;;;;;;;4965677;28;20217;-63
2022/04/24 09:00:19;;;;;;;48.33;22.13;;;;;;;;;;4950392;28;20737;-64
2022/04/24 09:02:45;;;;;;;82.40;30.27;;;;;;;;;;4962922;28;20214;-65
2022/04/24 09:05:12;;;;;;;116.28;35.33;;;;;;;;;;4962881;28;20268;-64
2022/04/24 09:07:39;;;;;;;76.88;21.20;;;;;;;;;;4960370;28;20324;-64
2022/04/24 09:10:09;;;;;;;137.88;39.58;;;;;;;;;;4964599;28;20214;-64
2022/04/24 09:12:35;;;;;;;72.07;30.17;;;;;;;;;;4967487;28;20186;-64
2022/04/24 09:15:01;;;;;;;141.73;48.25;;;;;;;;;;4961357;28;20182;-64
2022/04/24 09:17:32;;;;;;;72.25;33.10;;;;;;;;;;4966971;28;20214;-64
2022/04/24 09:19:59;;;;;;;96.75;35.40;;;;;;;;;;4960657;28;20211;-64
2022/04/24 09:22:25;;;;;;;78.75;24.67;;;;;;;;;;4962246;28;20493;-64
2022/04/24 09:24:56;;;;;;;95.65;30.30;;;;;;;;;;4960682;28;20228;-64
2022/04/24 09:27:26;;;;;;;70.45;21.98;;;;;;;;;;4950744;28;20262;-64
2022/04/24 09:29:54;;;;;;;62.05;20.08;;;;;;;;;;4964827;28;20307;-65
2022/04/24 09:32:20;;;;;;;45.85;14.38;;;;;;;;;;4964022;28;20205;-64
2022/04/24 09:34:47;;;;;;;99.75;26.52;;;;;;;;;;4962464;28;20746;-65
2022/04/24 09:37:13;;;;;;;61.95;15.48;;;;;;;;;;4964819;28;20218;-64
2022/04/24 09:39:39;;;;;;;79.20;23.50;;;;;;;;;;4961464;28;20270;-65
2022/04/24 09:42:09;;;;;;;111.28;34.33;;;;;;;;;;4964848;28;20538;-64
2022/04/24 09:44:39;;;;;;;66.03;21.00;;;;;;;;;;4964909;28;20214;-64
2022/04/24 09:47:06;;;;;;;102.97;36.42;;;;;;;;;;4963120;28;20229;-65
2022/04/24 09:49:36;;;;;;;79.70;24.30;;;;;;;;;;4962675;28;20688;-64
2022/04/24 09:52:03;;;;;;;203.73;64.93;;;;;;;;;;4954067;28;20229;-64
2022/04/24 09:54:29;;;;;;;38.65;11.13;;;;;;;;;;4964705;28;20190;-64
2022/04/24 09:56:57;;;;;;;105.95;33.55;;;;;;;;;;4942269;28;20260;-64
2022/04/24 09:59:23;;;;;;;44.25;23.88;;;;;;;;;;4969224;28;20216;-64
2022/04/24 10:01:49;;;;;;;135.73;49.05;;;;;;;;;;4965519;28;20573;-64
2022/04/24 10:04:16;;;;;;;70.50;33.58;;;;;;;;;;4966245;28;20652;-65
2022/04/24 10:06:42;;;;;;;71.97;35.05;;;;;;;;;;4964295;28;20202;-64
2022/04/24 10:09:09;;;;;;;122.00;49.28;;;;;;;;;;4970172;28;20182;-64
2022/04/24 10:11:35;;;;;;;80.90;36.92;;;;;;;;;;4966185;28;20222;-64
2022/04/24 10:14:08;;;;;;;94.93;41.78;;;;;;;;;;4963833;28;20222;-65
2022/04/24 10:16:52;;;;;;;49.67;30.90;;;;;;;;;;4969082;28;20276;-65
2022/04/24 10:19:29;;;;;;;64.63;31.52;;;;;;;;;;4970490;28;20202;-64
2022/04/24 10:21:54;;;;;;;136.15;61.28;;;;;;;;;;4961770;28;20753;-64
2022/04/24 10:24:21;;;;;;;84.57;56.25;;;;;;;;;;4967915;28;20289;-64
2022/04/24 10:26:59;;;;;;;90.00;80.50;;;;;;;;;;4967668;28;20253;-63
2022/04/24 10:29:25;;;;;;;120.30;92.70;;;;;;;;;;4968208;28;20526;-64
2022/04/24 10:31:52;;;;;;;213.13;123.57;;;;;;;;;;4957745;28;20214;-65
2022/04/24 10:34:19;;;;;;;150.35;102.75;;;;;;;;;;4950998;28;20202;-64
2022/04/24 10:36:55;;;;;;;135.90;101.45;;;;;;;;;;4957483;28;20178;-68
2022/04/24 10:39:22;;;;;;;146.77;105.68;;;;;;;;;;4965583;28;20197;-65
2022/04/24 10:41:58;;;;;;;201.68;128.52;;;;;;;;;;4961931;28;20213;-66
2022/04/24 10:44:25;;;;;;;233.02;142.80;;;;;;;;;;4958451;28;20794;-60
2022/04/24 10:46:53;;;;;;;136.50;109.18;;;;;;;;;;4957100;28;20778;-62
2022/04/24 10:49:19;;;;;;;151.52;108.85;;;;;;;;;;4960926;28;20214;-63
2022/04/24 10:51:57;;;;;;;173.20;121.55;;;;;;;;;;4964695;28;20210;-64
2022/04/24 10:54:30;;;;;;;166.88;117.28;;;;;;;;;;4959712;28;20224;-67
2022/04/24 10:56:56;;;;;;;231.30;154.80;;;;;;;;;;4959167;28;20202;-67
2022/04/24 10:59:22;;;;;;;265.80;162.82;;;;;;;;;;4956649;28;20256;-64
2022/04/24 11:01:50;;;;;;;245.77;153.02;;;;;;;;;;4941545;28;20227;-63
2022/04/24 11:04:17;;;;;;;202.35;136.95;;;;;;;;;;4957715;28;20258;-65
2022/04/24 11:06:56;;;;;;;167.55;121.53;;;;;;;;;;4957885;28;20719;-64
2022/04/24 11:09:22;;;;;;;225.10;144.48;;;;;;;;;;4966543;28;20182;-64
2022/04/24 11:11:49;;;;;;;209.73;136.77;;;;;;;;;;4960728;28;20211;-63
2022/04/24 11:14:22;;;;;;;189.98;125.90;;;;;;;;;;4961602;28;20707;-63
2022/04/24 11:16:49;;;;;;;183.40;129.00;;;;;;;;;;4966013;28;20292;-63
2022/04/24 11:19:23;;;;;;;210.40;144.77;;;;;;;;;;4962147;28;20218;-63
2022/04/24 11:21:54;;;;;;;162.02;126.25;;;;;;;;;;4960158;28;20633;-63
2022/04/24 11:24:20;;;;;;;227.10;146.55;;;;;;;;;;4960880;28;20217;-62
2022/04/24 11:26:47;;;;;;;228.95;145.52;;;;;;;;;;4959508;28;20218;-62
2022/04/24 11:29:13;;;;;;;256.55;154.77;;;;;;;;;;4956695;28;20243;-65
2022/04/24 11:31:47;;;;;;;219.93;140.18;;;;;;;;;;4947560;28;20520;-62
2022/04/24 11:34:12;;;;;;;302.77;186.63;;;;;;;;;;4947315;28;20680;-60
2022/04/24 11:36:38;;;;;;;185.85;136.77;;;;;;;;;;4959364;28;20201;-61
2022/04/24 11:39:07;;;;;;;247.40;158.07;;;;;;;;;;4962151;28;20691;-60
2022/04/24 11:41:35;;;;;;;255.70;157.05;;;;;;;;;;4958515;28;20222;-62
2022/04/24 11:52:25;;;;;;;277.63;173.45;;;;;;;;;;4959424;28;20348;-62
2022/04/24 11:54:51;;;;;;;216.27;143.05;;;;;;;;;;4954688;28;20314;-62
2022/04/24 11:57:18;;;;;;;339.80;197.80;;;;;;;;;;4926389;28;20186;-61
2022/04/24 11:59:50;;;;;;;237.50;152.75;;;;;;;;;;4957011;28;20221;-61
2022/04/24 12:02:16;;;;;;;335.73;192.98;;;;;;;;;;4957551;28;20220;-63
2022/04/24 12:04:42;;;;;;;272.33;165.82;;;;;;;;;;4961693;28;20762;-62
2022/04/24 12:07:09;;;;;;;344.27;199.43;;;;;;;;;;4961151;28;20250;-62
2022/04/24 12:09:36;;;;;;;338.88;202.20;;;;;;;;;;4962123;28;20196;-62
2022/04/24 12:12:09;;;;;;;369.05;217.73;;;;;;;;;;4960124;28;20198;-62
2022/04/24 12:14:36;;;;;;;389.00;226.38;;;;;;;;;;4956191;28;20583;-61
2022/04/24 12:17:03;;;;;;;307.45;188.77;;;;;;;;;;4957387;28;20426;-62
2022/04/24 12:19:29;;;;;;;288.80;179.30;;;;;;;;;;4959771;28;20221;-62
2022/04/24 12:21:55;;;;;;;332.30;203.75;;;;;;;;;;4952383;28;20225;-62
2022/04/24 12:24:21;;;;;;;300.02;185.15;;;;;;;;;;4960226;28;20202;-61
2022/04/24 12:26:54;;;;;;;309.40;182.80;;;;;;;;;;4956875;28;20280;-62
2022/04/24 12:29:20;;;;;;;371.17;215.60;;;;;;;;;;4956426;28;20219;-62
2022/04/24 12:31:46;;;;;;;286.80;178.20;;;;;;;;;;4957469;28;20255;-62
2022/04/24 12:34:12;;;;;;;274.17;175.35;;;;;;;;;;4960239;28;20241;-61
2022/04/24 12:36:49;;;;;;;316.02;196.27;;;;;;;;;;4955286;28;20194;-62
2022/04/24 12:39:15;;;;;;;255.95;170.55;;;;;;;;;;4963013;28;20194;-62
2022/04/24 12:41:41;;;;;;;271.33;176.93;;;;;;;;;;4958605;28;20406;-61
2022/04/24 12:44:07;;;;;;;304.35;195.65;;;;;;;;;;4962658;28;20377;-63
2022/04/24 12:46:34;;;;;;;301.05;190.48;;;;;;;;;;4957777;28;20276;-62
2022/04/24 12:49:03;;;;;;;316.30;201.57;;;;;;;;;;4962133;28;22219;-62
2022/04/24 12:51:29;;;;;;;266.80;172.52;;;;;;;;;;4954903;28;20210;-63
2022/04/24 12:53:57;;;;;;;310.08;191.73;;;;;;;;;;4954946;28;20624;-63
2022/04/24 12:56:24;;;;;;;312.67;195.82;;;;;;;;;;4956053;28;20520;-63
2022/04/24 12:58:50;;;;;;;296.55;194.20;;;;;;;;;;4937274;28;20226;-64
2022/04/24 13:01:15;;;;;;;275.13;178.68;;;;;;;;;;4940041;28;20214;-64
2022/04/24 13:03:43;;;;;;;301.52;185.88;;;;;;;;;;4956375;28;20190;-63
2022/04/24 13:06:10;;;;;;;294.33;190.07;;;;;;;;;;4956009;28;20288;-63
2022/04/24 13:08:37;;;;;;;265.95;170.05;;;;;;;;;;4957207;28;20218;-63
2022/04/24 13:11:03;;;;;;;325.27;198.38;;;;;;;;;;4950960;28;20756;-62
2022/04/24 13:13:32;;;;;;;298.08;184.45;;;;;;;;;;4957458;28;20241;-64
2022/04/24 13:18:42;;;;;;;252.27;165.27;;;;;;;;;;4955970;28;20197;-63
2022/04/24 13:21:09;;;;;;;334.83;191.45;;;;;;;;;;4936660;28;20191;-63
2022/04/24 13:23:35;;;;;;;352.42;199.18;;;;;;;;;;4955608;28;20214;-63
2022/04/24 13:26:02;;;;;;;294.02;174.55;;;;;;;;;;4956992;28;20588;-62
2022/04/24 13:28:28;;;;;;;325.27;190.75;;;;;;;;;;4953510;28;20210;-63
2022/04/24 13:30:54;;;;;;;241.27;151.90;;;;;;;;;;4955343;28;20210;-62
2022/04/24 13:33:20;;;;;;;267.08;161.73;;;;;;;;;;4961346;28;20676;-63
2022/04/24 13:35:47;;;;;;;360.08;212.75;;;;;;;;;;4952739;28;20228;-63
2022/04/24 13:38:19;;;;;;;270.85;173.10;;;;;;;;;;4955187;28;21125;-62
2022/04/24 13:40:45;;;;;;;243.35;160.00;;;;;;;;;;4955865;28;20226;-61
2022/04/24 13:43:12;;;;;;;277.52;174.15;;;;;;;;;;4954936;28;20850;-63
2022/04/24 13:45:38;;;;;;;241.68;158.10;;;;;;;;;;4954020;28;20205;-63
2022/04/24 13:48:05;;;;;;;327.02;190.07;;;;;;;;;;4938503;28;20221;-62
2022/04/24 13:50:32;;;;;;;267.90;165.57;;;;;;;;;;4956219;28;20249;-64
2022/04/24 13:52:59;;;;;;;258.90;169.35;;;;;;;;;;4960310;28;20309;-64
2022/04/24 13:55:29;;;;;;;276.25;170.00;;;;;;;;;;4954689;28;20883;-63
2022/04/24 13:57:55;;;;;;;253.07;161.65;;;;;;;;;;4956381;28;20217;-65
2022/04/24 14:00:23;;;;;;;267.42;163.35;;;;;;;;;;4958327;28;20229;-65
2022/04/24 14:02:49;;;;;;;217.30;149.68;;;;;;;;;;4958510;28;20306;-65
2022/04/24 14:05:15;;;;;;;262.45;165.82;;;;;;;;;;4955913;28;20704;-64
2022/04/24 14:07:41;;;;;;;193.20;138.70;;;;;;;;;;4941218;28;20631;-64
2022/04/24 14:10:07;;;;;;;238.13;160.30;;;;;;;;;;4958196;28;20210;-64
2022/04/24 14:12:34;;;;;;;222.57;148.73;;;;;;;;;;4955679;28;20186;-65
2022/04/24 14:15:00;;;;;;;325.77;190.20;;;;;;;;;;4947208;28;20956;-65
2022/04/24 14:17:26;;;;;;;196.30;136.45;;;;;;;;;;4956964;28;20214;-64
2022/04/24 14:19:53;;;;;;;216.82;144.77;;;;;;;;;;4948141;28;20281;-64